Woodville, Louisiana
Current Conditions -  °F | °C
As of 12:15 AM on Sunday 26 Oct 2014 (Local Time) from KRSN Reporting Station
Clear Clear  
Wind Chill: 64°   Ceiling: Unl
Heat Index: 64°   Visibility: 10mi
Dew Point: 60°   Wind: 5mph
Humidity: 89%   Direction: 220°SW
Pressure: 30.1"   Gusts: NA
Location:  32.5075°N, 92.6828°W
Report Text: KRSN 260515Z AUTO 22004KT 10SM CLR 18/16 A3010 RMK AO2 T01750156
Loading
Personal Weather Stations






























Interactive Weather Map
Tropical Storm Tracking
New forecast layout! Learn more

10-Day Weather Forecast

Advertisements
Track Severe Weather on mobile